createdAt,value
2022-08-05T00:01:27.790Z,4.47
2022-08-05T00:03:57.148Z,3.80
2022-08-05T00:06:29.053Z,4.33
2022-08-05T00:08:59.693Z,3.30
2022-08-05T00:11:30.355Z,4.33
2022-08-05T00:14:01.263Z,3.77
2022-08-05T00:16:35.973Z,3.60
2022-08-05T00:19:17.151Z,3.77
2022-08-05T00:21:48.299Z,4.17
2022-08-05T00:24:18.896Z,3.77
2022-08-05T00:26:50.891Z,3.30
2022-08-05T00:29:18.985Z,4.20
2022-08-05T00:32:10.986Z,3.73
2022-08-05T00:34:55.264Z,3.60
2022-08-05T00:37:24.771Z,3.20
2022-08-05T00:39:57.973Z,5.13
2022-08-05T00:42:33.826Z,4.33
2022-08-05T00:45:00.955Z,3.70
2022-08-05T00:47:53.122Z,3.27
2022-08-05T00:50:16.040Z,3.20
2022-08-05T00:52:45.494Z,2.80
2022-08-05T00:55:13.727Z,3.07
2022-08-05T00:57:58.158Z,3.03
2022-08-05T01:00:27.017Z,3.90
2022-08-05T01:02:54.084Z,3.10
2022-08-05T01:05:22.119Z,3.17
2022-08-05T01:08:41.548Z,3.30
2022-08-05T01:10:51.496Z,3.40
2022-08-05T01:13:27.149Z,3.30
2022-08-05T01:16:00.266Z,4.57
2022-08-05T01:18:32.709Z,3.93
2022-08-05T01:21:12.049Z,3.43
2022-08-05T01:23:54.856Z,3.97
2022-08-05T01:26:35.363Z,3.93
2022-08-05T01:29:05.593Z,3.57
2022-08-05T01:31:44.589Z,4.00
2022-08-05T01:34:15.585Z,3.90
2022-08-05T01:36:50.646Z,4.20
2022-08-05T01:39:46.816Z,4.70
2022-08-05T01:42:06.578Z,4.50
2022-08-05T01:44:39.181Z,3.83
2022-08-05T01:47:09.638Z,3.70
2022-08-05T01:50:01.567Z,3.77
2022-08-05T01:52:27.851Z,4.10
2022-08-05T01:54:59.161Z,3.97
2022-08-05T01:58:12.659Z,3.57
2022-08-05T02:00:18.605Z,4.27
2022-08-05T02:02:54.930Z,4.10
2022-08-05T02:05:25.486Z,3.80
2022-08-05T02:07:57.913Z,4.43
2022-08-05T02:10:29.286Z,3.77
2022-08-05T02:13:01.222Z,4.73
2022-08-05T02:15:35.113Z,4.40
2022-08-05T02:18:28.745Z,4.10
2022-08-05T02:20:58.819Z,4.67
2022-08-05T02:23:33.748Z,4.63
2022-08-05T02:26:04.947Z,4.80
2022-08-05T02:28:41.455Z,4.70
2022-08-05T02:31:14.979Z,5.40
2022-08-05T02:33:48.590Z,5.47
2022-08-05T02:36:20.350Z,5.30
2022-08-05T02:38:53.230Z,5.03
2022-08-05T02:41:22.753Z,4.90
2022-08-05T02:44:02.747Z,4.50
2022-08-05T02:46:36.451Z,4.97
2022-08-05T02:49:22.310Z,4.40
2022-08-05T02:52:04.364Z,4.50
2022-08-05T02:54:36.393Z,6.13
2022-08-05T02:57:10.155Z,5.90
2022-08-05T02:59:53.901Z,5.77
2022-08-05T03:02:28.095Z,7.40
2022-08-05T03:04:57.461Z,6.97
2022-08-05T03:08:00.316Z,6.50
2022-08-05T03:10:15.171Z,7.00
2022-08-05T03:12:41.876Z,8.30
2022-08-05T03:15:12.354Z,8.33
2022-08-05T03:17:41.876Z,8.40
2022-08-05T03:20:12.065Z,8.60
2022-08-05T03:22:46.848Z,7.90
2022-08-05T03:25:33.878Z,9.40
2022-08-05T03:28:06.249Z,7.63
2022-08-05T03:30:35.942Z,8.43
2022-08-05T03:33:06.092Z,9.67
2022-08-05T03:35:33.764Z,10.57
2022-08-05T03:38:07.133Z,11.17
2022-08-05T03:40:34.446Z,12.93
2022-08-05T03:43:58.566Z,12.63
2022-08-05T03:45:55.255Z,14.20
2022-08-05T03:48:27.328Z,14.57
2022-08-05T03:52:36.466Z,15.50
2022-08-05T03:55:51.627Z,12.57
2022-08-05T03:56:42.980Z,13.67
2022-08-05T03:59:20.159Z,13.50
2022-08-05T04:01:49.767Z,14.20
2022-08-05T04:04:21.532Z,13.13
2022-08-05T04:06:51.121Z,12.77
2022-08-05T04:09:25.946Z,13.13
2022-08-05T04:11:53.984Z,13.77
2022-08-05T04:14:29.878Z,11.83
2022-08-05T04:16:58.710Z,12.10
2022-08-05T04:19:27.666Z,12.23
2022-08-05T04:22:08.895Z,11.77
2022-08-05T04:24:43.954Z,12.53
2022-08-05T04:27:12.338Z,12.17
2022-08-05T04:29:39.046Z,10.97
2022-08-05T04:32:06.668Z,13.10
2022-08-05T04:34:38.530Z,9.97
2022-08-05T04:37:09.923Z,9.77
2022-08-05T04:39:37.691Z,10.37
2022-08-05T04:42:06.627Z,8.37
2022-08-05T04:44:33.370Z,7.73
2022-08-05T04:47:08.843Z,9.33
2022-08-05T04:50:02.659Z,8.80
2022-08-05T04:52:27.701Z,7.60
2022-08-05T04:54:56.907Z,7.60
2022-08-05T04:57:24.037Z,7.47
2022-08-05T04:59:56.217Z,7.93
2022-08-05T05:02:37.508Z,8.10
2022-08-05T05:05:26.497Z,8.40
2022-08-05T05:08:01.582Z,9.07
2022-08-05T05:10:29.656Z,8.37
2022-08-05T05:12:56.748Z,7.40
2022-08-05T05:15:56.481Z,6.90
2022-08-05T05:18:13.515Z,6.10
2022-08-05T05:20:43.031Z,8.90
2022-08-05T05:23:19.943Z,8.13
2022-08-05T05:25:47.758Z,8.43
2022-08-05T05:28:14.657Z,10.03
2022-08-05T05:30:42.460Z,9.53
2022-08-05T05:33:16.987Z,7.53
2022-08-05T05:35:46.283Z,6.93
2022-08-05T05:38:14.368Z,8.53
2022-08-05T05:40:48.265Z,8.40
2022-08-05T05:43:27.875Z,8.63
2022-08-05T05:46:10.626Z,9.07
2022-08-05T05:48:40.848Z,9.07
2022-08-05T05:51:15.429Z,8.50
2022-08-05T05:53:54.102Z,9.10
2022-08-05T05:56:31.359Z,10.57
2022-08-05T05:59:03.156Z,6.30
2022-08-05T06:01:37.783Z,6.90
2022-08-05T06:04:06.787Z,8.43
2022-08-05T06:06:35.221Z,8.53
2022-08-05T06:09:17.094Z,6.20
2022-08-05T06:11:59.623Z,7.13
2022-08-05T06:14:29.202Z,9.77
2022-08-05T06:16:56.912Z,7.67
2022-08-05T06:19:26.063Z,7.67
2022-08-05T06:22:02.780Z,9.37
2022-08-05T06:24:30.084Z,8.83
2022-08-05T06:26:58.181Z,7.80
2022-08-05T06:29:52.097Z,7.50
2022-08-05T06:32:21.401Z,9.40
2022-08-05T06:34:53.529Z,10.27
2022-08-05T06:37:57.728Z,9.83
2022-08-05T06:40:12.877Z,7.23
2022-08-05T06:42:40.701Z,7.90
2022-08-05T06:45:09.337Z,8.77
2022-08-05T06:48:47.377Z,8.73
2022-08-05T06:50:23.525Z,9.37
2022-08-05T06:53:03.655Z,6.70
2022-08-05T06:55:38.537Z,9.70
2022-08-05T06:58:19.831Z,7.67
2022-08-05T07:00:58.539Z,8.57
2022-08-05T07:03:27.944Z,8.70
2022-08-05T07:05:59.678Z,7.13
2022-08-05T07:08:27.751Z,10.03
2022-08-05T07:10:55.707Z,11.40
2022-08-05T07:13:56.728Z,11.37
2022-08-05T07:16:09.415Z,10.67
2022-08-05T07:18:38.834Z,10.83
2022-08-05T07:21:14.504Z,10.80
2022-08-05T07:23:54.044Z,11.73
2022-08-05T07:26:24.834Z,10.77
2022-08-05T07:28:51.704Z,10.60
2022-08-05T07:31:20.300Z,11.87
2022-08-05T07:34:08.376Z,12.10
2022-08-05T07:36:35.149Z,11.13
2022-08-05T07:39:05.985Z,11.37
2022-08-05T07:42:14.193Z,11.80
2022-08-05T07:44:20.124Z,9.67
2022-08-05T07:46:49.774Z,10.37
2022-08-05T07:49:18.129Z,12.93
2022-08-05T07:51:53.356Z,13.50
2022-08-05T07:54:26.261Z,11.77
2022-08-05T07:57:01.385Z,12.07
2022-08-05T07:59:41.153Z,12.60
2022-08-05T08:02:15.251Z,10.83
2022-08-05T08:04:44.885Z,9.73
2022-08-05T08:07:12.077Z,9.03
2022-08-05T08:09:40.159Z,12.63
2022-08-05T08:12:16.494Z,12.67
2022-08-05T08:14:53.990Z,13.03
2022-08-05T08:17:21.505Z,13.83
2022-08-05T08:20:22.604Z,11.87
2022-08-05T08:22:35.892Z,12.50
2022-08-05T08:25:16.458Z,11.40
2022-08-05T08:27:47.376Z,11.53
2022-08-05T08:30:32.560Z,11.53
2022-08-05T08:33:08.369Z,9.20
2022-08-05T08:35:41.336Z,10.20
2022-08-05T08:38:08.636Z,10.10
2022-08-05T08:40:40.160Z,11.20
2022-08-05T08:43:20.935Z,10.30
2022-08-05T08:45:56.354Z,10.20
2022-08-05T08:49:00.965Z,10.20
2022-08-05T08:51:54.488Z,9.50
2022-08-05T08:53:58.718Z,10.60
2022-08-05T08:56:29.434Z,10.77
2022-08-05T08:58:56.947Z,9.10
2022-08-05T09:01:25.718Z,8.40
2022-08-05T09:03:55.663Z,6.87
2022-08-05T09:06:29.167Z,10.00
2022-08-05T09:08:58.537Z,9.77
2022-08-05T09:11:50.685Z,9.63
2022-08-05T09:14:56.855Z,10.03
2022-08-05T09:17:00.635Z,9.47
2022-08-05T09:19:28.054Z,8.80
2022-08-05T09:22:22.912Z,8.60
2022-08-05T09:24:58.373Z,7.17
2022-08-05T09:28:05.465Z,8.63
2022-08-05T09:30:23.425Z,10.07
2022-08-05T09:32:51.594Z,7.10
2022-08-05T09:35:26.683Z,5.80
2022-08-05T09:38:12.453Z,8.97
2022-08-05T09:40:51.743Z,6.53
2022-08-05T09:43:27.520Z,9.20
2022-08-05T09:46:27.882Z,6.73
2022-08-05T09:49:08.126Z,6.30
2022-08-05T09:51:42.911Z,7.50
2022-08-05T09:54:10.075Z,6.20
2022-08-05T09:56:38.081Z,6.27
2022-08-05T09:59:06.820Z,6.77
2022-08-05T10:01:36.654Z,5.60
2022-08-05T10:04:10.095Z,7.10
2022-08-05T10:06:38.119Z,6.70
2022-08-05T10:09:27.638Z,7.83
2022-08-05T10:12:30.735Z,5.47
2022-08-05T10:14:54.512Z,7.90
2022-08-05T10:17:37.398Z,5.20
2022-08-05T10:20:09.963Z,5.90
2022-08-05T10:22:42.835Z,5.70
2022-08-05T10:25:10.409Z,5.47
2022-08-05T10:28:13.193Z,5.40
2022-08-05T10:31:20.921Z,5.77
2022-08-05T10:33:17.728Z,5.33
2022-08-05T10:35:48.631Z,6.40
2022-08-05T10:38:28.674Z,7.70
2022-08-05T10:41:01.763Z,6.07
2022-08-05T10:43:38.208Z,7.27
2022-08-05T10:46:07.255Z,7.53
2022-08-05T10:48:56.851Z,6.03
2022-08-05T10:51:28.899Z,5.17
2022-08-05T10:53:58.225Z,5.70
2022-08-05T10:56:29.264Z,7.00
2022-08-05T10:59:12.818Z,5.50
2022-08-05T11:02:07.601Z,5.43
2022-08-05T11:04:45.100Z,5.77
2022-08-05T11:07:12.524Z,6.10
2022-08-05T11:09:47.267Z,6.13
2022-08-05T11:12:41.893Z,5.60
2022-08-05T11:15:19.751Z,6.60
2022-08-05T11:17:57.318Z,5.97
2022-08-05T11:20:43.940Z,6.10
2022-08-05T11:24:03.091Z,5.30
2022-08-05T11:26:28.420Z,6.40
2022-08-05T11:29:05.157Z,4.20
2022-08-05T11:31:58.165Z,5.10
2022-08-05T11:34:36.369Z,5.17
2022-08-05T11:37:06.240Z,4.30
2022-08-05T11:40:00.766Z,5.43
2022-08-05T11:42:32.407Z,6.00
2022-08-05T11:45:14.552Z,5.10
2022-08-05T11:47:54.840Z,4.27
2022-08-05T11:50:22.205Z,5.20
2022-08-05T11:52:53.111Z,3.63
2022-08-05T11:55:21.283Z,6.30
2022-08-05T11:58:09.150Z,4.17
2022-08-05T12:00:38.087Z,5.23
2022-08-05T12:03:16.713Z,5.50
2022-08-05T12:05:59.341Z,4.90
2022-08-05T12:08:28.063Z,4.90
2022-08-05T12:10:59.527Z,5.20
2022-08-05T12:13:49.614Z,8.83
2022-08-05T12:16:19.196Z,9.07
2022-08-05T12:18:49.523Z,10.30
2022-08-05T12:21:23.696Z,10.20
2022-08-05T12:24:00.187Z,9.80
2022-08-05T12:26:32.319Z,8.67
2022-08-05T12:28:59.900Z,10.60
2022-08-05T12:31:33.553Z,8.37
2022-08-05T12:34:14.707Z,9.13
2022-08-05T12:36:50.409Z,9.17
2022-08-05T12:39:18.822Z,9.83
2022-08-05T12:41:46.155Z,9.10
2022-08-05T12:44:21.740Z,9.20
2022-08-05T12:47:00.317Z,7.50
2022-08-05T12:50:04.311Z,7.90
2022-08-05T12:52:32.413Z,7.90
2022-08-05T12:55:22.637Z,8.00
2022-08-05T12:58:48.551Z,9.17
2022-08-05T13:02:04.265Z,8.37
2022-08-05T13:03:32.374Z,8.97
2022-08-05T13:05:59.658Z,9.10
2022-08-05T13:08:29.516Z,8.63
2022-08-05T13:11:00.940Z,8.37
2022-08-05T13:14:06.642Z,8.40
2022-08-05T13:16:16.852Z,7.97
2022-08-05T13:18:51.170Z,6.90
2022-08-05T13:21:17.898Z,6.27
2022-08-05T13:23:50.874Z,7.30
2022-08-05T13:26:27.236Z,6.83
2022-08-05T13:28:57.448Z,7.00
2022-08-05T13:32:03.473Z,7.50
2022-08-05T13:34:21.834Z,7.40
2022-08-05T13:36:52.348Z,10.30
2022-08-05T13:39:24.419Z,9.07
2022-08-05T13:42:14.442Z,7.10
2022-08-05T13:44:45.547Z,9.77
2022-08-05T13:47:35.598Z,10.07
2022-08-05T13:50:00.155Z,10.30
2022-08-05T13:52:29.224Z,9.20
2022-08-05T13:54:57.040Z,9.87
2022-08-05T13:57:27.309Z,10.27
2022-08-05T14:00:14.409Z,12.13
2022-08-05T14:02:42.798Z,11.07
2022-08-05T14:05:11.702Z,11.67
2022-08-05T14:08:00.058Z,11.67
2022-08-05T14:10:28.696Z,8.63
2022-08-05T14:12:57.598Z,8.63
2022-08-05T14:16:07.267Z,8.83
2022-08-05T14:18:15.008Z,8.93
2022-08-05T14:20:46.874Z,7.20
2022-08-05T14:23:14.722Z,6.30
2022-08-05T14:25:48.285Z,5.73
2022-08-05T14:28:26.209Z,5.77
2022-08-05T14:30:53.931Z,4.47
2022-08-05T14:33:22.807Z,2.50
2022-08-05T14:35:51.574Z,2.50
2022-08-05T14:38:31.859Z,2.20
2022-08-05T14:41:01.382Z,2.37
2022-08-05T14:43:59.371Z,2.20
2022-08-05T14:46:16.077Z,2.10
2022-08-05T14:48:42.971Z,2.57
2022-08-05T14:51:16.238Z,2.60
2022-08-05T14:53:44.929Z,2.33
2022-08-05T14:56:11.809Z,2.47
2022-08-05T14:58:47.911Z,2.20
2022-08-05T15:01:24.312Z,3.07
2022-08-05T15:04:07.177Z,2.63
2022-08-05T15:06:34.021Z,2.80
2022-08-05T15:09:03.569Z,3.00
2022-08-05T15:11:53.200Z,2.90
2022-08-05T15:14:34.658Z,2.97
2022-08-05T15:17:09.839Z,2.40
2022-08-05T15:19:55.106Z,2.77
2022-08-05T15:22:22.081Z,1.97
2022-08-05T15:24:54.259Z,2.50
2022-08-05T15:27:20.957Z,2.40
2022-08-05T15:29:49.029Z,2.40
2022-08-05T15:32:16.479Z,2.40
2022-08-05T15:34:43.418Z,2.30
2022-08-05T15:37:14.760Z,1.93
2022-08-05T15:41:00.732Z,2.23
2022-08-05T15:42:55.786Z,2.63
2022-08-05T15:45:18.741Z,2.00
2022-08-05T15:47:49.872Z,2.07
2022-08-05T15:50:21.099Z,2.00
2022-08-05T15:52:54.989Z,2.20
2022-08-05T15:55:24.676Z,1.70
2022-08-05T15:58:09.461Z,1.90
2022-08-05T16:01:03.613Z,2.00
2022-08-05T16:03:32.840Z,2.10
2022-08-05T16:06:00.734Z,2.40
2022-08-05T16:08:30.435Z,2.17
2022-08-05T16:10:57.838Z,2.13
2022-08-05T16:13:34.443Z,1.77
2022-08-05T16:16:03.709Z,3.17
2022-08-05T16:18:30.558Z,1.80
2022-08-05T16:20:57.584Z,2.40
2022-08-05T16:23:24.248Z,1.90
2022-08-05T16:25:55.812Z,2.60
2022-08-05T16:28:24.272Z,2.90
2022-08-05T16:30:51.028Z,2.07
2022-08-05T16:33:20.858Z,2.47
2022-08-05T16:35:52.810Z,2.10
2022-08-05T16:38:25.256Z,2.03
2022-08-05T16:40:59.630Z,2.10
2022-08-05T16:43:28.733Z,2.23
2022-08-05T16:46:07.590Z,2.10
2022-08-05T16:48:41.045Z,3.10
2022-08-05T16:51:09.050Z,2.10
2022-08-05T16:54:02.968Z,2.20
2022-08-05T16:56:25.827Z,2.27
2022-08-05T16:58:52.545Z,1.93
2022-08-05T17:01:19.326Z,2.27
2022-08-05T17:03:47.388Z,1.70
2022-08-05T17:06:16.630Z,2.10
2022-08-05T17:08:53.111Z,1.70
2022-08-05T17:11:23.719Z,1.80
2022-08-05T17:14:00.488Z,2.17
2022-08-05T17:16:36.002Z,1.80
2022-08-05T17:19:07.437Z,2.20
2022-08-05T17:21:35.415Z,1.27
2022-08-05T17:24:19.909Z,1.70
2022-08-05T17:26:50.321Z,1.53
2022-08-05T17:29:17.470Z,1.90
2022-08-05T17:31:58.246Z,1.80
2022-08-05T17:34:29.990Z,1.80
2022-08-05T17:36:58.842Z,2.50
2022-08-05T17:39:29.894Z,1.83
2022-08-05T17:42:20.155Z,2.20
2022-08-05T17:44:50.913Z,1.70
2022-08-05T17:47:18.311Z,1.87
2022-08-05T17:49:59.900Z,2.27
2022-08-05T17:52:31.674Z,1.97
2022-08-05T17:54:58.589Z,2.00
2022-08-05T17:57:25.279Z,2.20
2022-08-05T18:00:05.345Z,3.20
2022-08-05T18:02:33.317Z,2.17
2022-08-05T18:05:02.814Z,2.07
2022-08-05T18:07:41.454Z,2.40
2022-08-05T18:10:10.786Z,2.50
2022-08-05T18:12:38.001Z,1.90
2022-08-05T18:15:05.790Z,2.57
2022-08-05T18:18:00.988Z,2.33
2022-08-05T18:20:29.436Z,2.47
2022-08-05T18:22:58.154Z,2.30
2022-08-05T18:25:32.949Z,2.20
2022-08-05T18:28:04.930Z,2.27
2022-08-05T18:30:32.301Z,2.10
2022-08-05T18:33:00.408Z,1.70
2022-08-05T18:36:01.316Z,2.07
2022-08-05T18:38:19.362Z,1.83
2022-08-05T18:41:55.146Z,1.80
2022-08-05T18:43:42.801Z,1.90
2022-08-05T18:46:15.750Z,2.20
2022-08-05T18:48:47.254Z,2.13
2022-08-05T18:52:05.400Z,2.13
2022-08-05T18:54:02.430Z,1.73
2022-08-05T18:56:29.188Z,1.83
2022-08-05T18:59:00.771Z,1.80
2022-08-05T19:01:47.200Z,2.00
2022-08-05T19:04:14.596Z,2.53
2022-08-05T19:06:53.540Z,2.23
2022-08-05T19:09:20.647Z,2.10
2022-08-05T19:12:00.231Z,2.23
2022-08-05T19:14:52.229Z,2.40
2022-08-05T19:17:16.057Z,2.20
2022-08-05T19:19:46.323Z,2.20
2022-08-05T19:22:17.746Z,2.37
2022-08-05T19:24:54.450Z,2.13
2022-08-05T19:27:23.861Z,2.90
2022-08-05T19:29:50.998Z,2.37
2022-08-05T19:32:17.672Z,2.60
2022-08-05T19:34:55.161Z,1.90
2022-08-05T19:37:29.923Z,2.30
2022-08-05T19:40:11.034Z,3.23
2022-08-05T19:42:38.771Z,2.33
2022-08-05T19:45:06.855Z,2.33
2022-08-05T19:47:34.324Z,3.50
2022-08-05T19:50:04.637Z,2.70
2022-08-05T19:52:40.699Z,2.30
2022-08-05T19:56:14.238Z,2.30
2022-08-05T19:58:19.515Z,2.67
2022-08-05T20:00:42.444Z,2.43
2022-08-05T20:03:09.532Z,2.90
2022-08-05T20:05:43.312Z,2.70
2022-08-05T20:08:18.938Z,3.17
2022-08-05T20:10:49.692Z,3.10
2022-08-05T20:13:17.114Z,2.60
2022-08-05T20:15:51.760Z,3.00
2022-08-05T20:18:35.190Z,2.80
2022-08-05T20:21:04.454Z,3.23
2022-08-05T20:23:40.206Z,2.70
2022-08-05T20:26:18.626Z,2.93
2022-08-05T20:28:46.908Z,3.30
2022-08-05T20:31:13.725Z,3.00
2022-08-05T20:33:43.638Z,2.93
2022-08-05T20:36:11.646Z,3.50
2022-08-05T20:38:54.611Z,3.50
2022-08-05T20:41:26.848Z,3.57
2022-08-05T20:43:58.649Z,4.00
2022-08-05T20:46:27.246Z,4.03
2022-08-05T20:48:53.949Z,4.60
2022-08-05T20:51:22.038Z,3.80
2022-08-05T20:53:56.262Z,3.47
2022-08-05T20:56:24.515Z,3.63
2022-08-05T20:58:56.797Z,3.07
2022-08-05T21:01:38.874Z,3.90
2022-08-05T21:04:05.798Z,3.87
2022-08-05T21:06:33.356Z,3.00
2022-08-05T21:09:01.419Z,3.50
2022-08-05T21:12:09.533Z,3.80
2022-08-05T21:14:14.740Z,3.23
2022-08-05T21:16:41.413Z,2.90
2022-08-05T21:19:08.097Z,2.60
2022-08-05T21:21:39.145Z,3.10
2022-08-05T21:24:12.788Z,3.03
2022-08-05T21:26:40.063Z,2.10
2022-08-05T21:29:10.056Z,2.60
2022-08-05T21:31:43.358Z,2.50
2022-08-05T21:34:10.603Z,1.97
2022-08-05T21:36:37.773Z,2.03
2022-08-05T21:39:04.579Z,1.83
2022-08-05T21:41:32.868Z,3.20
2022-08-05T21:44:03.665Z,1.53
2022-08-05T21:46:30.816Z,1.60
2022-08-05T21:48:59.982Z,1.53
2022-08-05T21:52:21.457Z,1.53
2022-08-05T21:54:13.489Z,1.50
2022-08-05T21:56:44.422Z,1.30
2022-08-05T21:59:24.242Z,1.20
2022-08-05T22:01:54.535Z,1.17
2022-08-05T22:04:21.480Z,1.27
2022-08-05T22:06:52.432Z,0.90
2022-08-05T22:09:21.016Z,0.90
2022-08-05T22:11:49.904Z,0.80
2022-08-05T22:14:32.999Z,1.07
2022-08-05T22:17:03.917Z,1.10
2022-08-05T22:19:57.535Z,0.70
2022-08-05T22:22:27.140Z,0.90
2022-08-05T22:24:56.060Z,0.90
2022-08-05T22:27:24.215Z,1.10
2022-08-05T22:30:12.623Z,0.80
2022-08-05T22:32:40.752Z,0.80
2022-08-05T22:35:09.126Z,1.00
2022-08-05T22:37:59.168Z,0.97
2022-08-05T22:40:22.671Z,1.00
2022-08-05T22:42:53.120Z,0.77
2022-08-05T22:45:24.849Z,1.07
2022-08-05T22:47:55.357Z,1.13
2022-08-05T22:50:26.695Z,1.20
2022-08-05T22:52:54.503Z,0.93
2022-08-05T22:55:22.287Z,1.20
2022-08-05T22:57:51.221Z,0.70
2022-08-05T23:00:20.927Z,0.90
2022-08-05T23:02:49.132Z,1.63
2022-08-05T23:05:16.539Z,0.80
2022-08-05T23:07:45.100Z,0.93
2022-08-05T23:10:15.469Z,0.90
2022-08-05T23:12:46.206Z,0.87
2022-08-05T23:15:14.225Z,0.90
2022-08-05T23:18:01.313Z,1.20
2022-08-05T23:20:30.188Z,1.13
2022-08-05T23:22:58.658Z,0.90
2022-08-05T23:25:51.046Z,0.77
2022-08-05T23:28:15.842Z,0.80
2022-08-05T23:30:53.831Z,1.00
2022-08-05T23:33:25.837Z,0.97
2022-08-05T23:36:10.058Z,2.10
2022-08-05T23:38:37.286Z,0.77
2022-08-05T23:41:04.182Z,1.23
2022-08-05T23:44:04.439Z,0.90
2022-08-05T23:46:21.062Z,0.83
2022-08-05T23:49:00.371Z,0.70
2022-08-05T23:51:30.306Z,0.70
2022-08-05T23:54:01.453Z,0.93
2022-08-05T23:56:28.279Z,1.00
2022-08-05T23:58:58.729Z,0.90
